Terminal Aerodrome Forecast
Issued by NWS Charleston, WV

Current Version | Previous Version | Graphics & Text | Print | Product List | Glossary On
Versions: 1 2 3 4 5 6 7 8 9 10 11 12 13 14 15 16 17 18 19 20 21 22 23
000
FTUS41 KRLX 280248 AAA
TAFEKN
TAF AMD
KEKN 280248Z 2803/2824 24008KT P6SM BKN030
     FM280600 24008G15KT P6SM OVC020
     FM280900 25008G15KT 6SM -SHRA BR OVC018
     FM281400 26012G20KT 6SM BR BKN020
     FM281600 26014G20KT P6SM BKN025
     FM282100 28010KT P6SM BKN035=

USA.gov is the U.S. government's official web portal to all federal, state and local government web resources and services.